sensor_id;sensor_type;location;lat;lon;timestamp;P1;durP1;ratioP1;P2;durP2;ratioP2
75932;SDS011;64803;52.356;5.310;2023-07-31T00:00:38;3.90;;;1.15;;
75932;SDS011;64803;52.356;5.310;2023-07-31T00:03:04;3.58;;;1.20;;
75932;SDS011;64803;52.356;5.310;2023-07-31T00:05:30;4.25;;;1.17;;
75932;SDS011;64803;52.356;5.310;2023-07-31T00:07:56;4.55;;;1.30;;
75932;SDS011;64803;52.356;5.310;2023-07-31T00:10:22;4.05;;;1.60;;
75932;SDS011;64803;52.356;5.310;2023-07-31T00:12:48;8.38;;;1.50;;
75932;SDS011;64803;52.356;5.310;2023-07-31T00:15:14;6.47;;;1.80;;
75932;SDS011;64803;52.356;5.310;2023-07-31T00:17:41;6.43;;;1.90;;
75932;SDS011;64803;52.356;5.310;2023-07-31T00:20:07;8.43;;;2.00;;
75932;SDS011;64803;52.356;5.310;2023-07-31T00:22:33;6.88;;;1.92;;
75932;SDS011;64803;52.356;5.310;2023-07-31T00:24:59;7.68;;;1.80;;
75932;SDS011;64803;52.356;5.310;2023-07-31T00:27:25;12.05;;;2.08;;
75932;SDS011;64803;52.356;5.310;2023-07-31T00:29:51;9.85;;;2.40;;
75932;SDS011;64803;52.356;5.310;2023-07-31T00:32:17;12.98;;;3.03;;
75932;SDS011;64803;52.356;5.310;2023-07-31T00:34:43;10.68;;;2.53;;
75932;SDS011;64803;52.356;5.310;2023-07-31T00:37:09;11.18;;;2.25;;
75932;SDS011;64803;52.356;5.310;2023-07-31T00:39:35;9.00;;;2.13;;
75932;SDS011;64803;52.356;5.310;2023-07-31T00:42:01;9.90;;;2.03;;
75932;SDS011;64803;52.356;5.310;2023-07-31T00:44:28;15.90;;;2.22;;
75932;SDS011;64803;52.356;5.310;2023-07-31T00:46:54;13.27;;;2.78;;
75932;SDS011;64803;52.356;5.310;2023-07-31T00:49:21;8.73;;;2.42;;
75932;SDS011;64803;52.356;5.310;2023-07-31T00:51:48;15.80;;;2.70;;
75932;SDS011;64803;52.356;5.310;2023-07-31T00:54:14;7.68;;;2.03;;
75932;SDS011;64803;52.356;5.310;2023-07-31T00:56:41;19.08;;;2.95;;
75932;SDS011;64803;52.356;5.310;2023-07-31T00:59:07;8.95;;;2.33;;
75932;SDS011;64803;52.356;5.310;2023-07-31T01:01:33;10.70;;;3.20;;
75932;SDS011;64803;52.356;5.310;2023-07-31T01:03:59;10.75;;;2.88;;
75932;SDS011;64803;52.356;5.310;2023-07-31T01:07:01;9.32;;;3.00;;
75932;SDS011;64803;52.356;5.310;2023-07-31T01:12:03;12.90;;;2.42;;
75932;SDS011;64803;52.356;5.310;2023-07-31T01:14:30;10.57;;;2.42;;
75932;SDS011;64803;52.356;5.310;2023-07-31T01:16:56;7.90;;;2.13;;
75932;SDS011;64803;52.356;5.310;2023-07-31T01:19:23;11.88;;;2.90;;
75932;SDS011;64803;52.356;5.310;2023-07-31T01:25:05;12.18;;;2.85;;
75932;SDS011;64803;52.356;5.310;2023-07-31T01:27:53;6.15;;;2.45;;
75932;SDS011;64803;52.356;5.310;2023-07-31T01:30:34;14.63;;;3.15;;
75932;SDS011;64803;52.356;5.310;2023-07-31T01:33:07;11.27;;;2.97;;
75932;SDS011;64803;52.356;5.310;2023-07-31T01:35:34;13.45;;;3.13;;
75932;SDS011;64803;52.356;5.310;2023-07-31T01:38:00;16.20;;;4.38;;
75932;SDS011;64803;52.356;5.310;2023-07-31T01:40:26;9.63;;;3.25;;
75932;SDS011;64803;52.356;5.310;2023-07-31T01:42:52;9.95;;;2.72;;
75932;SDS011;64803;52.356;5.310;2023-07-31T01:45:18;14.77;;;2.90;;
75932;SDS011;64803;52.356;5.310;2023-07-31T01:47:45;21.92;;;4.95;;
75932;SDS011;64803;52.356;5.310;2023-07-31T01:50:11;16.08;;;3.83;;
75932;SDS011;64803;52.356;5.310;2023-07-31T01:52:37;15.70;;;3.67;;
75932;SDS011;64803;52.356;5.310;2023-07-31T01:55:04;15.05;;;4.20;;
75932;SDS011;64803;52.356;5.310;2023-07-31T01:57:30;23.67;;;5.47;;
75932;SDS011;64803;52.356;5.310;2023-07-31T01:59:56;13.38;;;3.95;;
75932;SDS011;64803;52.356;5.310;2023-07-31T02:02:22;18.50;;;4.97;;
75932;SDS011;64803;52.356;5.310;2023-07-31T02:04:51;22.65;;;6.32;;
75932;SDS011;64803;52.356;5.310;2023-07-31T02:07:17;27.10;;;5.35;;
75932;SDS011;64803;52.356;5.310;2023-07-31T02:09:43;20.77;;;5.97;;
75932;SDS011;64803;52.356;5.310;2023-07-31T02:12:09;21.55;;;5.13;;
75932;SDS011;64803;52.356;5.310;2023-07-31T02:14:35;23.80;;;5.90;;
75932;SDS011;64803;52.356;5.310;2023-07-31T02:17:01;24.00;;;5.72;;
75932;SDS011;64803;52.356;5.310;2023-07-31T02:19:27;21.27;;;4.15;;
75932;SDS011;64803;52.356;5.310;2023-07-31T02:21:53;20.67;;;5.85;;
75932;SDS011;64803;52.356;5.310;2023-07-31T02:24:19;24.55;;;5.97;;
75932;SDS011;64803;52.356;5.310;2023-07-31T02:26:45;25.88;;;6.20;;
75932;SDS011;64803;52.356;5.310;2023-07-31T02:29:11;21.45;;;5.50;;
75932;SDS011;64803;52.356;5.310;2023-07-31T02:31:37;29.35;;;7.32;;
75932;SDS011;64803;52.356;5.310;2023-07-31T02:36:30;28.60;;;6.10;;
75932;SDS011;64803;52.356;5.310;2023-07-31T02:38:56;26.70;;;6.22;;
75932;SDS011;64803;52.356;5.310;2023-07-31T02:41:22;24.80;;;6.07;;
75932;SDS011;64803;52.356;5.310;2023-07-31T02:43:48;33.67;;;6.35;;
75932;SDS011;64803;52.356;5.310;2023-07-31T02:46:15;28.90;;;6.53;;
75932;SDS011;64803;52.356;5.310;2023-07-31T02:48:41;34.55;;;8.57;;
75932;SDS011;64803;52.356;5.310;2023-07-31T02:51:07;21.90;;;5.20;;
75932;SDS011;64803;52.356;5.310;2023-07-31T02:53:33;34.22;;;6.53;;
75932;SDS011;64803;52.356;5.310;2023-07-31T02:55:59;31.80;;;7.13;;
75932;SDS011;64803;52.356;5.310;2023-07-31T02:58:25;25.17;;;5.40;;
75932;SDS011;64803;52.356;5.310;2023-07-31T03:00:51;33.22;;;7.47;;
75932;SDS011;64803;52.356;5.310;2023-07-31T03:03:17;32.78;;;7.07;;
75932;SDS011;64803;52.356;5.310;2023-07-31T03:05:43;33.90;;;6.63;;
75932;SDS011;64803;52.356;5.310;2023-07-31T03:08:09;29.65;;;6.70;;
75932;SDS011;64803;52.356;5.310;2023-07-31T03:10:35;31.55;;;7.30;;
75932;SDS011;64803;52.356;5.310;2023-07-31T03:13:01;37.33;;;8.20;;
75932;SDS011;64803;52.356;5.310;2023-07-31T03:15:27;29.20;;;6.45;;
75932;SDS011;64803;52.356;5.310;2023-07-31T03:17:53;34.53;;;7.60;;
75932;SDS011;64803;52.356;5.310;2023-07-31T03:20:19;30.45;;;7.05;;
75932;SDS011;64803;52.356;5.310;2023-07-31T03:22:45;30.25;;;6.88;;
75932;SDS011;64803;52.356;5.310;2023-07-31T03:25:11;25.80;;;7.40;;
75932;SDS011;64803;52.356;5.310;2023-07-31T03:27:38;31.13;;;6.53;;
75932;SDS011;64803;52.356;5.310;2023-07-31T03:30:04;29.90;;;6.93;;
75932;SDS011;64803;52.356;5.310;2023-07-31T03:32:30;35.17;;;7.25;;
75932;SDS011;64803;52.356;5.310;2023-07-31T03:34:57;28.13;;;7.13;;
75932;SDS011;64803;52.356;5.310;2023-07-31T03:37:23;30.60;;;7.07;;
75932;SDS011;64803;52.356;5.310;2023-07-31T03:39:49;31.63;;;7.05;;
75932;SDS011;64803;52.356;5.310;2023-07-31T03:42:16;32.95;;;8.02;;
75932;SDS011;64803;52.356;5.310;2023-07-31T03:44:42;34.85;;;6.43;;
75932;SDS011;64803;52.356;5.310;2023-07-31T03:47:10;34.20;;;7.25;;
75932;SDS011;64803;52.356;5.310;2023-07-31T03:49:37;28.85;;;6.63;;
75932;SDS011;64803;52.356;5.310;2023-07-31T03:52:03;33.50;;;6.68;;
75932;SDS011;64803;52.356;5.310;2023-07-31T03:54:30;32.25;;;6.38;;
75932;SDS011;64803;52.356;5.310;2023-07-31T03:56:56;27.55;;;7.53;;
75932;SDS011;64803;52.356;5.310;2023-07-31T03:59:22;31.63;;;7.25;;
75932;SDS011;64803;52.356;5.310;2023-07-31T04:01:48;27.67;;;5.78;;
75932;SDS011;64803;52.356;5.310;2023-07-31T04:04:14;30.35;;;6.28;;
75932;SDS011;64803;52.356;5.310;2023-07-31T04:06:40;31.15;;;6.60;;
75932;SDS011;64803;52.356;5.310;2023-07-31T04:09:06;35.53;;;6.82;;
75932;SDS011;64803;52.356;5.310;2023-07-31T04:11:32;32.42;;;6.15;;
75932;SDS011;64803;52.356;5.310;2023-07-31T04:13:58;37.53;;;6.95;;
75932;SDS011;64803;52.356;5.310;2023-07-31T04:16:24;29.27;;;6.90;;
75932;SDS011;64803;52.356;5.310;2023-07-31T04:18:50;31.98;;;6.40;;
75932;SDS011;64803;52.356;5.310;2023-07-31T04:21:16;34.67;;;6.93;;
75932;SDS011;64803;52.356;5.310;2023-07-31T04:23:43;27.42;;;6.57;;
75932;SDS011;64803;52.356;5.310;2023-07-31T04:26:09;34.08;;;6.45;;
75932;SDS011;64803;52.356;5.310;2023-07-31T04:28:35;26.27;;;6.30;;
75932;SDS011;64803;52.356;5.310;2023-07-31T04:31:01;27.02;;;6.75;;
75932;SDS011;64803;52.356;5.310;2023-07-31T04:33:27;34.15;;;6.82;;
75932;SDS011;64803;52.356;5.310;2023-07-31T04:35:53;33.00;;;7.38;;
75932;SDS011;64803;52.356;5.310;2023-07-31T04:38:20;35.33;;;7.55;;
75932;SDS011;64803;52.356;5.310;2023-07-31T04:40:47;26.73;;;7.28;;
75932;SDS011;64803;52.356;5.310;2023-07-31T04:43:13;29.88;;;7.35;;
75932;SDS011;64803;52.356;5.310;2023-07-31T04:45:42;32.50;;;6.75;;
75932;SDS011;64803;52.356;5.310;2023-07-31T04:48:11;24.98;;;6.90;;
75932;SDS011;64803;52.356;5.310;2023-07-31T04:50:37;26.73;;;6.85;;
75932;SDS011;64803;52.356;5.310;2023-07-31T04:53:03;31.45;;;6.38;;
75932;SDS011;64803;52.356;5.310;2023-07-31T04:55:29;26.63;;;7.45;;
75932;SDS011;64803;52.356;5.310;2023-07-31T04:57:55;28.00;;;5.90;;
75932;SDS011;64803;52.356;5.310;2023-07-31T05:00:21;31.40;;;5.90;;
75932;SDS011;64803;52.356;5.310;2023-07-31T05:02:47;32.10;;;6.65;;
75932;SDS011;64803;52.356;5.310;2023-07-31T05:05:12;31.88;;;5.97;;
75932;SDS011;64803;52.356;5.310;2023-07-31T05:07:38;36.08;;;7.88;;
75932;SDS011;64803;52.356;5.310;2023-07-31T05:10:05;31.27;;;5.63;;
75932;SDS011;64803;52.356;5.310;2023-07-31T05:12:31;29.60;;;5.97;;
75932;SDS011;64803;52.356;5.310;2023-07-31T05:14:57;33.50;;;7.05;;
75932;SDS011;64803;52.356;5.310;2023-07-31T05:17:23;27.52;;;6.65;;
75932;SDS011;64803;52.356;5.310;2023-07-31T05:19:49;28.73;;;6.47;;
75932;SDS011;64803;52.356;5.310;2023-07-31T05:22:15;20.25;;;6.13;;
75932;SDS011;64803;52.356;5.310;2023-07-31T05:24:41;24.17;;;5.95;;
75932;SDS011;64803;52.356;5.310;2023-07-31T05:27:07;25.98;;;5.93;;
75932;SDS011;64803;52.356;5.310;2023-07-31T05:29:33;13.95;;;5.25;;
75932;SDS011;64803;52.356;5.310;2023-07-31T05:31:59;18.02;;;5.75;;
75932;SDS011;64803;52.356;5.310;2023-07-31T05:34:25;16.27;;;5.05;;
75932;SDS011;64803;52.356;5.310;2023-07-31T05:36:51;11.93;;;4.35;;
75932;SDS011;64803;52.356;5.310;2023-07-31T05:39:17;15.20;;;4.22;;
75932;SDS011;64803;52.356;5.310;2023-07-31T05:41:45;12.25;;;3.88;;
75932;SDS011;64803;52.356;5.310;2023-07-31T05:44:11;8.75;;;3.35;;
75932;SDS011;64803;52.356;5.310;2023-07-31T05:46:37;10.65;;;3.00;;
75932;SDS011;64803;52.356;5.310;2023-07-31T05:49:03;11.73;;;3.33;;
75932;SDS011;64803;52.356;5.310;2023-07-31T05:51:29;10.77;;;3.75;;
75932;SDS011;64803;52.356;5.310;2023-07-31T05:53:55;11.30;;;3.22;;
75932;SDS011;64803;52.356;5.310;2023-07-31T05:56:21;9.73;;;2.25;;
75932;SDS011;64803;52.356;5.310;2023-07-31T05:58:47;10.90;;;3.60;;
75932;SDS011;64803;52.356;5.310;2023-07-31T06:01:15;11.35;;;3.95;;
75932;SDS011;64803;52.356;5.310;2023-07-31T06:03:41;7.32;;;2.85;;
75932;SDS011;64803;52.356;5.310;2023-07-31T06:06:08;8.18;;;2.80;;
75932;SDS011;64803;52.356;5.310;2023-07-31T06:08:34;10.05;;;3.72;;
75932;SDS011;64803;52.356;5.310;2023-07-31T06:11:00;10.85;;;2.03;;
75932;SDS011;64803;52.356;5.310;2023-07-31T06:13:26;9.27;;;3.13;;
75932;SDS011;64803;52.356;5.310;2023-07-31T06:15:52;11.25;;;3.00;;
75932;SDS011;64803;52.356;5.310;2023-07-31T06:18:18;9.75;;;3.30;;
75932;SDS011;64803;52.356;5.310;2023-07-31T06:20:44;9.45;;;2.70;;
75932;SDS011;64803;52.356;5.310;2023-07-31T06:23:10;10.32;;;2.90;;
75932;SDS011;64803;52.356;5.310;2023-07-31T06:25:36;8.40;;;2.35;;
75932;SDS011;64803;52.356;5.310;2023-07-31T06:28:02;11.80;;;2.88;;
75932;SDS011;64803;52.356;5.310;2023-07-31T06:30:28;10.52;;;2.33;;
75932;SDS011;64803;52.356;5.310;2023-07-31T06:32:54;9.07;;;2.55;;
75932;SDS011;64803;52.356;5.310;2023-07-31T06:35:20;10.43;;;2.92;;
75932;SDS011;64803;52.356;5.310;2023-07-31T06:37:46;8.18;;;2.55;;
75932;SDS011;64803;52.356;5.310;2023-07-31T06:40:12;8.23;;;2.40;;
75932;SDS011;64803;52.356;5.310;2023-07-31T06:42:38;6.38;;;2.20;;
75932;SDS011;64803;52.356;5.310;2023-07-31T06:45:04;9.15;;;2.42;;
75932;SDS011;64803;52.356;5.310;2023-07-31T06:47:31;8.85;;;2.13;;
75932;SDS011;64803;52.356;5.310;2023-07-31T06:49:57;8.95;;;2.72;;
75932;SDS011;64803;52.356;5.310;2023-07-31T06:52:23;10.13;;;2.30;;
75932;SDS011;64803;52.356;5.310;2023-07-31T06:55:15;8.38;;;2.90;;
75932;SDS011;64803;52.356;5.310;2023-07-31T06:57:46;8.55;;;2.55;;
75932;SDS011;64803;52.356;5.310;2023-07-31T07:00:12;8.13;;;2.70;;
75932;SDS011;64803;52.356;5.310;2023-07-31T07:02:39;10.13;;;2.72;;
75932;SDS011;64803;52.356;5.310;2023-07-31T07:05:05;6.88;;;2.13;;
75932;SDS011;64803;52.356;5.310;2023-07-31T07:07:32;6.65;;;1.98;;
75932;SDS011;64803;52.356;5.310;2023-07-31T07:09:58;9.23;;;2.53;;
75932;SDS011;64803;52.356;5.310;2023-07-31T07:12:29;7.05;;;2.08;;
75932;SDS011;64803;52.356;5.310;2023-07-31T07:14:56;6.50;;;2.75;;
75932;SDS011;64803;52.356;5.310;2023-07-31T07:17:23;6.88;;;2.55;;
75932;SDS011;64803;52.356;5.310;2023-07-31T07:19:50;7.20;;;2.50;;
75932;SDS011;64803;52.356;5.310;2023-07-31T07:22:16;8.57;;;2.03;;
75932;SDS011;64803;52.356;5.310;2023-07-31T07:24:42;4.93;;;1.88;;
75932;SDS011;64803;52.356;5.310;2023-07-31T07:27:08;5.97;;;2.33;;
75932;SDS011;64803;52.356;5.310;2023-07-31T07:29:34;6.25;;;2.33;;
75932;SDS011;64803;52.356;5.310;2023-07-31T07:32:01;7.32;;;1.55;;
75932;SDS011;64803;52.356;5.310;2023-07-31T07:34:27;5.32;;;1.90;;
75932;SDS011;64803;52.356;5.310;2023-07-31T07:36:54;5.10;;;1.67;;
75932;SDS011;64803;52.356;5.310;2023-07-31T07:39:20;6.15;;;2.03;;
75932;SDS011;64803;52.356;5.310;2023-07-31T07:41:46;5.53;;;1.85;;
75932;SDS011;64803;52.356;5.310;2023-07-31T07:44:13;4.22;;;1.50;;
75932;SDS011;64803;52.356;5.310;2023-07-31T07:46:43;4.57;;;1.80;;
75932;SDS011;64803;52.356;5.310;2023-07-31T07:49:09;5.07;;;1.85;;
75932;SDS011;64803;52.356;5.310;2023-07-31T07:51:35;4.90;;;1.80;;
75932;SDS011;64803;52.356;5.310;2023-07-31T07:54:01;6.75;;;1.85;;
75932;SDS011;64803;52.356;5.310;2023-07-31T07:56:27;7.57;;;1.80;;
75932;SDS011;64803;52.356;5.310;2023-07-31T07:58:53;5.93;;;1.48;;
75932;SDS011;64803;52.356;5.310;2023-07-31T08:01:20;5.00;;;1.48;;
75932;SDS011;64803;52.356;5.310;2023-07-31T08:03:46;4.88;;;1.70;;
75932;SDS011;64803;52.356;5.310;2023-07-31T08:06:14;3.47;;;1.20;;
75932;SDS011;64803;52.356;5.310;2023-07-31T08:08:40;4.53;;;1.25;;
75932;SDS011;64803;52.356;5.310;2023-07-31T08:11:06;3.60;;;1.15;;
75932;SDS011;64803;52.356;5.310;2023-07-31T08:13:32;3.85;;;1.40;;
75932;SDS011;64803;52.356;5.310;2023-07-31T08:15:58;2.55;;;0.90;;
75932;SDS011;64803;52.356;5.310;2023-07-31T08:18:24;3.15;;;1.05;;
75932;SDS011;64803;52.356;5.310;2023-07-31T08:20:50;5.97;;;1.48;;
75932;SDS011;64803;52.356;5.310;2023-07-31T08:23:16;3.53;;;1.10;;
75932;SDS011;64803;52.356;5.310;2023-07-31T08:25:42;3.45;;;1.20;;
75932;SDS011;64803;52.356;5.310;2023-07-31T08:28:08;3.72;;;1.00;;
75932;SDS011;64803;52.356;5.310;2023-07-31T08:30:34;3.88;;;1.27;;
75932;SDS011;64803;52.356;5.310;2023-07-31T08:33:00;4.65;;;1.17;;
75932;SDS011;64803;52.356;5.310;2023-07-31T08:35:26;3.95;;;1.30;;
75932;SDS011;64803;52.356;5.310;2023-07-31T08:37:54;3.05;;;1.10;;
75932;SDS011;64803;52.356;5.310;2023-07-31T08:40:20;4.82;;;1.40;;
75932;SDS011;64803;52.356;5.310;2023-07-31T08:42:49;3.72;;;1.20;;
75932;SDS011;64803;52.356;5.310;2023-07-31T08:45:19;3.80;;;1.15;;
75932;SDS011;64803;52.356;5.310;2023-07-31T08:47:47;3.25;;;1.30;;
75932;SDS011;64803;52.356;5.310;2023-07-31T08:50:18;3.28;;;1.20;;
75932;SDS011;64803;52.356;5.310;2023-07-31T08:52:45;2.53;;;1.10;;
75932;SDS011;64803;52.356;5.310;2023-07-31T08:55:12;3.30;;;1.30;;
75932;SDS011;64803;52.356;5.310;2023-07-31T08:57:39;3.97;;;1.17;;
75932;SDS011;64803;52.356;5.310;2023-07-31T09:00:06;3.88;;;1.40;;
75932;SDS011;64803;52.356;5.310;2023-07-31T09:05:17;3.05;;;1.27;;
75932;SDS011;64803;52.356;5.310;2023-07-31T09:07:45;2.95;;;1.10;;
75932;SDS011;64803;52.356;5.310;2023-07-31T09:10:13;3.40;;;1.10;;
75932;SDS011;64803;52.356;5.310;2023-07-31T09:12:39;3.10;;;1.42;;
75932;SDS011;64803;52.356;5.310;2023-07-31T09:15:05;3.63;;;1.20;;
75932;SDS011;64803;52.356;5.310;2023-07-31T09:17:32;2.83;;;1.15;;
75932;SDS011;64803;52.356;5.310;2023-07-31T09:20:13;3.47;;;1.10;;
75932;SDS011;64803;52.356;5.310;2023-07-31T09:22:47;2.17;;;0.85;;
75932;SDS011;64803;52.356;5.310;2023-07-31T09:27:46;2.25;;;1.00;;
75932;SDS011;64803;52.356;5.310;2023-07-31T09:30:16;2.63;;;0.90;;
75932;SDS011;64803;52.356;5.310;2023-07-31T09:35:29;1.45;;;0.65;;
75932;SDS011;64803;52.356;5.310;2023-07-31T09:38:02;3.05;;;1.02;;
75932;SDS011;64803;52.356;5.310;2023-07-31T09:40:31;2.25;;;0.90;;
75932;SDS011;64803;52.356;5.310;2023-07-31T09:43:00;1.90;;;0.88;;
75932;SDS011;64803;52.356;5.310;2023-07-31T09:45:27;3.85;;;1.08;;
75932;SDS011;64803;52.356;5.310;2023-07-31T09:47:54;5.53;;;1.35;;
75932;SDS011;64803;52.356;5.310;2023-07-31T09:50:21;3.85;;;1.20;;
75932;SDS011;64803;52.356;5.310;2023-07-31T09:52:49;9.25;;;1.50;;
75932;SDS011;64803;52.356;5.310;2023-07-31T09:55:16;4.25;;;1.30;;
75932;SDS011;64803;52.356;5.310;2023-07-31T09:57:44;5.35;;;1.30;;
75932;SDS011;64803;52.356;5.310;2023-07-31T10:00:12;5.53;;;0.90;;
75932;SDS011;64803;52.356;5.310;2023-07-31T10:02:41;5.53;;;1.30;;
75932;SDS011;64803;52.356;5.310;2023-07-31T10:05:07;6.05;;;1.52;;
75932;SDS011;64803;52.356;5.310;2023-07-31T10:07:36;4.90;;;1.35;;
75932;SDS011;64803;52.356;5.310;2023-07-31T10:10:07;8.48;;;1.60;;
75932;SDS011;64803;52.356;5.310;2023-07-31T10:12:35;3.22;;;1.15;;
75932;SDS011;64803;52.356;5.310;2023-07-31T10:15:02;7.97;;;2.03;;
75932;SDS011;64803;52.356;5.310;2023-07-31T10:17:29;10.05;;;1.98;;
75932;SDS011;64803;52.356;5.310;2023-07-31T10:19:56;8.13;;;2.10;;
75932;SDS011;64803;52.356;5.310;2023-07-31T10:22:25;6.80;;;2.38;;
75932;SDS011;64803;52.356;5.310;2023-07-31T10:24:51;8.65;;;2.60;;
75932;SDS011;64803;52.356;5.310;2023-07-31T10:27:18;7.35;;;2.38;;
75932;SDS011;64803;52.356;5.310;2023-07-31T10:29:44;5.78;;;2.42;;
75932;SDS011;64803;52.356;5.310;2023-07-31T10:32:13;9.23;;;2.38;;
75932;SDS011;64803;52.356;5.310;2023-07-31T10:34:42;8.35;;;2.08;;
75932;SDS011;64803;52.356;5.310;2023-07-31T10:42:30;11.30;;;3.00;;
75932;SDS011;64803;52.356;5.310;2023-07-31T10:45:10;10.48;;;2.58;;
75932;SDS011;64803;52.356;5.310;2023-07-31T10:47:37;9.20;;;2.33;;
75932;SDS011;64803;52.356;5.310;2023-07-31T10:50:12;10.77;;;2.15;;
75932;SDS011;64803;52.356;5.310;2023-07-31T10:52:39;10.60;;;3.05;;
75932;SDS011;64803;52.356;5.310;2023-07-31T10:58:08;12.13;;;3.15;;
75932;SDS011;64803;52.356;5.310;2023-07-31T11:00:38;11.90;;;2.80;;
75932;SDS011;64803;52.356;5.310;2023-07-31T11:03:07;8.52;;;2.25;;
75932;SDS011;64803;52.356;5.310;2023-07-31T11:10:41;9.93;;;2.03;;
75932;SDS011;64803;52.356;5.310;2023-07-31T11:13:07;13.55;;;3.17;;
75932;SDS011;64803;52.356;5.310;2023-07-31T11:15:33;11.68;;;2.20;;
75932;SDS011;64803;52.356;5.310;2023-07-31T11:18:00;9.88;;;2.28;;
75932;SDS011;64803;52.356;5.310;2023-07-31T11:20:29;11.13;;;2.67;;
75932;SDS011;64803;52.356;5.310;2023-07-31T11:25:24;13.82;;;2.80;;
75932;SDS011;64803;52.356;5.310;2023-07-31T11:27:50;8.82;;;2.22;;
75932;SDS011;64803;52.356;5.310;2023-07-31T11:30:19;9.57;;;2.38;;
75932;SDS011;64803;52.356;5.310;2023-07-31T11:32:46;9.07;;;2.35;;
75932;SDS011;64803;52.356;5.310;2023-07-31T11:35:12;7.50;;;2.00;;
75932;SDS011;64803;52.356;5.310;2023-07-31T11:37:41;11.40;;;2.47;;
75932;SDS011;64803;52.356;5.310;2023-07-31T11:40:09;13.60;;;3.42;;
75932;SDS011;64803;52.356;5.310;2023-07-31T11:42:36;9.15;;;2.75;;
75932;SDS011;64803;52.356;5.310;2023-07-31T11:45:03;10.60;;;2.90;;
75932;SDS011;64803;52.356;5.310;2023-07-31T11:47:36;9.88;;;2.80;;
75932;SDS011;64803;52.356;5.310;2023-07-31T11:52:30;12.10;;;3.10;;
75932;SDS011;64803;52.356;5.310;2023-07-31T11:54:59;13.95;;;2.95;;
75932;SDS011;64803;52.356;5.310;2023-07-31T11:57:26;16.35;;;3.00;;
75932;SDS011;64803;52.356;5.310;2023-07-31T11:59:53;9.88;;;2.00;;
75932;SDS011;64803;52.356;5.310;2023-07-31T12:02:19;13.20;;;2.53;;
75932;SDS011;64803;52.356;5.310;2023-07-31T12:04:46;10.80;;;3.47;;
75932;SDS011;64803;52.356;5.310;2023-07-31T12:07:13;12.43;;;2.95;;
75932;SDS011;64803;52.356;5.310;2023-07-31T12:09:55;11.98;;;2.20;;
75932;SDS011;64803;52.356;5.310;2023-07-31T12:12:22;12.85;;;2.25;;
75932;SDS011;64803;52.356;5.310;2023-07-31T12:14:49;11.57;;;2.90;;
75932;SDS011;64803;52.356;5.310;2023-07-31T12:17:17;10.93;;;2.65;;
75932;SDS011;64803;52.356;5.310;2023-07-31T12:19:48;9.52;;;2.35;;
75932;SDS011;64803;52.356;5.310;2023-07-31T12:22:17;11.63;;;2.90;;
75932;SDS011;64803;52.356;5.310;2023-07-31T12:24:43;12.25;;;2.90;;
75932;SDS011;64803;52.356;5.310;2023-07-31T12:27:11;11.82;;;2.20;;
75932;SDS011;64803;52.356;5.310;2023-07-31T12:29:37;11.70;;;2.55;;
75932;SDS011;64803;52.356;5.310;2023-07-31T12:32:04;8.32;;;2.13;;
75932;SDS011;64803;52.356;5.310;2023-07-31T12:37:07;8.90;;;2.70;;
75932;SDS011;64803;52.356;5.310;2023-07-31T12:39:33;9.98;;;3.15;;
75932;SDS011;64803;52.356;5.310;2023-07-31T12:41:59;10.50;;;2.58;;
75932;SDS011;64803;52.356;5.310;2023-07-31T12:44:25;11.68;;;2.53;;
75932;SDS011;64803;52.356;5.310;2023-07-31T12:46:51;12.80;;;2.42;;
75932;SDS011;64803;52.356;5.310;2023-07-31T12:49:17;9.85;;;2.28;;
75932;SDS011;64803;52.356;5.310;2023-07-31T12:51:43;10.40;;;2.85;;
75932;SDS011;64803;52.356;5.310;2023-07-31T12:54:09;8.57;;;2.05;;
75932;SDS011;64803;52.356;5.310;2023-07-31T12:56:35;7.68;;;2.40;;
75932;SDS011;64803;52.356;5.310;2023-07-31T12:59:01;9.20;;;2.20;;
75932;SDS011;64803;52.356;5.310;2023-07-31T13:01:27;9.27;;;2.53;;
75932;SDS011;64803;52.356;5.310;2023-07-31T13:03:53;8.65;;;2.05;;
75932;SDS011;64803;52.356;5.310;2023-07-31T13:06:19;12.00;;;2.00;;
75932;SDS011;64803;52.356;5.310;2023-07-31T13:08:45;7.63;;;1.80;;
75932;SDS011;64803;52.356;5.310;2023-07-31T13:11:11;9.00;;;2.05;;
75932;SDS011;64803;52.356;5.310;2023-07-31T13:13:37;9.82;;;2.10;;
75932;SDS011;64803;52.356;5.310;2023-07-31T13:16:03;7.00;;;1.58;;
75932;SDS011;64803;52.356;5.310;2023-07-31T13:18:29;10.00;;;2.30;;
75932;SDS011;64803;52.356;5.310;2023-07-31T13:20:55;9.43;;;2.22;;
75932;SDS011;64803;52.356;5.310;2023-07-31T13:23:21;11.13;;;1.80;;
75932;SDS011;64803;52.356;5.310;2023-07-31T13:25:47;6.90;;;1.85;;
75932;SDS011;64803;52.356;5.310;2023-07-31T13:28:13;3.55;;;1.13;;
75932;SDS011;64803;52.356;5.310;2023-07-31T13:30:40;6.18;;;1.52;;
75932;SDS011;64803;52.356;5.310;2023-07-31T13:33:06;6.53;;;1.60;;
75932;SDS011;64803;52.356;5.310;2023-07-31T13:35:32;6.90;;;1.60;;
75932;SDS011;64803;52.356;5.310;2023-07-31T13:37:58;10.00;;;1.70;;
75932;SDS011;64803;52.356;5.310;2023-07-31T13:40:24;10.90;;;1.90;;
75932;SDS011;64803;52.356;5.310;2023-07-31T13:42:50;6.68;;;1.85;;
75932;SDS011;64803;52.356;5.310;2023-07-31T13:45:16;5.82;;;1.55;;
75932;SDS011;64803;52.356;5.310;2023-07-31T13:47:42;8.13;;;1.80;;
75932;SDS011;64803;52.356;5.310;2023-07-31T13:50:08;7.70;;;2.03;;
75932;SDS011;64803;52.356;5.310;2023-07-31T13:52:34;7.75;;;1.60;;
75932;SDS011;64803;52.356;5.310;2023-07-31T13:55:00;7.30;;;1.67;;
75932;SDS011;64803;52.356;5.310;2023-07-31T13:57:26;9.73;;;2.50;;
75932;SDS011;64803;52.356;5.310;2023-07-31T13:59:53;9.02;;;2.60;;
75932;SDS011;64803;52.356;5.310;2023-07-31T14:02:19;6.40;;;1.98;;
75932;SDS011;64803;52.356;5.310;2023-07-31T14:04:45;11.82;;;2.70;;
75932;SDS011;64803;52.356;5.310;2023-07-31T14:07:11;8.98;;;2.67;;
75932;SDS011;64803;52.356;5.310;2023-07-31T14:09:37;6.53;;;2.17;;
75932;SDS011;64803;52.356;5.310;2023-07-31T14:12:03;8.50;;;2.38;;
75932;SDS011;64803;52.356;5.310;2023-07-31T14:14:29;9.50;;;2.75;;
75932;SDS011;64803;52.356;5.310;2023-07-31T14:16:55;5.10;;;2.00;;
75932;SDS011;64803;52.356;5.310;2023-07-31T14:19:21;6.70;;;2.10;;
75932;SDS011;64803;52.356;5.310;2023-07-31T14:21:47;4.18;;;1.40;;
75932;SDS011;64803;52.356;5.310;2023-07-31T14:24:13;6.00;;;1.80;;
75932;SDS011;64803;52.356;5.310;2023-07-31T14:26:40;4.90;;;1.50;;
75932;SDS011;64803;52.356;5.310;2023-07-31T14:29:06;7.75;;;1.40;;
75932;SDS011;64803;52.356;5.310;2023-07-31T14:31:32;5.80;;;1.30;;
75932;SDS011;64803;52.356;5.310;2023-07-31T14:33:58;4.85;;;1.58;;
75932;SDS011;64803;52.356;5.310;2023-07-31T14:36:24;4.53;;;1.48;;
75932;SDS011;64803;52.356;5.310;2023-07-31T14:38:50;5.75;;;1.80;;
75932;SDS011;64803;52.356;5.310;2023-07-31T14:41:16;8.15;;;2.13;;
75932;SDS011;64803;52.356;5.310;2023-07-31T14:43:42;5.38;;;1.80;;
75932;SDS011;64803;52.356;5.310;2023-07-31T14:46:08;5.30;;;1.67;;
75932;SDS011;64803;52.356;5.310;2023-07-31T14:48:34;7.63;;;2.15;;
75932;SDS011;64803;52.356;5.310;2023-07-31T14:51:00;4.30;;;1.70;;
75932;SDS011;64803;52.356;5.310;2023-07-31T14:53:26;6.50;;;1.80;;
75932;SDS011;64803;52.356;5.310;2023-07-31T14:55:52;6.30;;;2.60;;
75932;SDS011;64803;52.356;5.310;2023-07-31T14:58:18;5.38;;;1.60;;
75932;SDS011;64803;52.356;5.310;2023-07-31T15:00:44;10.40;;;2.22;;
75932;SDS011;64803;52.356;5.310;2023-07-31T15:03:10;9.88;;;2.45;;
75932;SDS011;64803;52.356;5.310;2023-07-31T15:05:36;5.13;;;1.75;;
75932;SDS011;64803;52.356;5.310;2023-07-31T15:08:02;6.30;;;2.20;;
75932;SDS011;64803;52.356;5.310;2023-07-31T15:10:28;7.70;;;2.22;;
75932;SDS011;64803;52.356;5.310;2023-07-31T15:12:54;6.38;;;1.40;;
75932;SDS011;64803;52.356;5.310;2023-07-31T15:15:20;5.15;;;1.27;;